Time;durP1;ratioP1;P1;durP2;ratioP2;P2;SDS_P1;SDS_P2;PMS_P1;PMS_P2;Temp;Humidity;BMP_temperature;BMP_pressure;BME280_temperature;BME280_humidity;BME280_pressure;Samples;Min_cycle;Max_cycle;Signal;HPM_P1;HPM_P2
2022/04/10 00:01:46;;;;;;;3.50;1.70;;;17.90;38.00;;;;;;5135707;27;20026;-59
2022/04/10 00:04:13;;;;;;;2.20;1.50;;;17.90;38.00;;;;;;5136365;27;20027;-58
2022/04/10 00:06:40;;;;;;;2.03;1.48;;;17.90;38.00;;;;;;5136744;27;20453;-57
2022/04/10 00:09:06;;;;;;;4.90;2.20;;;17.90;38.00;;;;;;5137865;27;20016;-58
2022/04/10 00:11:32;;;;;;;2.63;1.73;;;17.90;38.00;;;;;;5138134;27;20050;-55
2022/04/10 00:13:58;;;;;;;3.00;1.80;;;17.90;38.10;;;;;;5139285;27;20015;-58
2022/04/10 00:16:25;;;;;;;3.53;1.80;;;17.90;38.10;;;;;;5138768;27;20012;-56
2022/04/10 00:18:51;;;;;;;3.00;1.60;;;17.80;38.00;;;;;;5138975;27;20016;-57
2022/04/10 00:21:17;;;;;;;3.25;2.03;;;17.90;38.10;;;;;;5140206;27;20007;-56
2022/04/10 00:23:43;;;;;;;2.60;1.60;;;17.80;38.00;;;;;;5141462;27;20034;-58
2022/04/10 00:26:11;;;;;;;3.28;1.88;;;17.80;38.10;;;;;;5105931;28;20480;-57
2022/04/10 00:28:37;;;;;;;2.60;1.73;;;17.80;38.10;;;;;;5122974;28;20019;-56
2022/04/10 00:31:03;;;;;;;3.92;1.77;;;17.80;38.10;;;;;;5105677;28;20103;-57
2022/04/10 00:33:29;;;;;;;3.65;1.80;;;17.80;38.10;;;;;;5139548;28;20496;-55
2022/04/10 00:35:56;;;;;;;3.15;1.90;;;17.80;38.10;;;;;;5138740;28;20019;-55
2022/04/10 00:38:21;;;;;;;3.20;1.98;;;17.80;38.10;;;;;;5140204;28;20025;-55
2022/04/10 00:40:48;;;;;;;2.90;1.95;;;17.80;38.20;;;;;;5139537;28;20031;-56
2022/04/10 00:43:15;;;;;;;2.63;1.77;;;17.80;38.20;;;;;;5138685;28;20015;-54
2022/04/10 00:45:42;;;;;;;6.88;2.25;;;17.80;38.20;;;;;;5119819;28;20034;-53
2022/04/10 00:48:09;;;;;;;3.58;2.15;;;17.80;38.20;;;;;;5119959;28;20027;-54
2022/04/10 00:50:34;;;;;;;3.75;1.90;;;17.80;38.20;;;;;;5138105;28;20015;-51
2022/04/10 00:53:01;;;;;;;2.97;1.80;;;17.80;38.20;;;;;;5136244;28;20036;-52
2022/04/10 00:55:27;;;;;;;2.20;1.55;;;17.80;38.20;;;;;;5136669;28;20007;-54
2022/04/10 00:57:53;;;;;;;3.53;1.90;;;17.80;38.20;;;;;;5118274;28;20039;-53
2022/04/10 01:00:20;;;;;;;2.45;1.73;;;17.70;38.10;;;;;;5138469;28;20026;-52
2022/04/10 01:02:46;;;;;;;2.53;1.70;;;17.80;38.20;;;;;;5119465;28;20019;-57
2022/04/10 01:05:13;;;;;;;3.05;2.08;;;17.70;38.20;;;;;;5136175;28;20067;-51
2022/04/10 01:07:39;;;;;;;3.78;1.80;;;17.70;38.20;;;;;;5136069;28;20011;-53
2022/04/10 01:10:06;;;;;;;2.47;1.73;;;17.70;38.20;;;;;;5138134;28;20018;-54
2022/04/10 01:12:33;;;;;;;2.38;1.80;;;17.80;38.20;;;;;;5136405;28;20027;-50
2022/04/10 01:14:59;;;;;;;4.10;1.65;;;17.70;38.20;;;;;;5136226;28;20011;-50
2022/04/10 01:17:24;;;;;;;4.07;1.60;;;17.70;38.80;;;;;;5135485;28;20464;-52
2022/04/10 01:19:51;;;;;;;2.75;1.75;;;17.80;38.30;;;;;;5100119;28;20075;-53
2022/04/10 01:22:33;;;;;;;2.55;1.90;;;17.70;38.20;;;;;;5100893;28;20061;-52
2022/04/10 01:24:59;;;;;;;2.78;1.67;;;17.70;38.30;;;;;;5136529;28;20007;-52
2022/04/10 01:27:25;;;;;;;2.53;1.58;;;17.70;38.30;;;;;;5135239;28;20022;-49
2022/04/10 01:29:51;;;;;;;2.78;1.92;;;17.70;38.30;;;;;;5135017;28;20012;-53
2022/04/10 01:32:18;;;;;;;3.25;2.17;;;17.70;38.30;;;;;;5135633;27;20072;-54
2022/04/10 01:34:45;;;;;;;2.45;1.90;;;17.70;38.30;;;;;;5138498;27;20027;-51
2022/04/10 01:37:11;;;;;;;2.55;1.75;;;17.70;38.30;;;;;;5120522;27;20012;-52
2022/04/10 01:39:37;;;;;;;3.58;2.28;;;17.70;38.40;;;;;;5103749;27;20018;-53
2022/04/10 01:42:05;;;;;;;3.13;1.67;;;17.70;38.30;;;;;;5139232;27;20019;-50
2022/04/10 01:44:39;;;;;;;2.92;1.95;;;17.70;38.30;;;;;;5139554;27;20373;-52
2022/04/10 01:47:05;;;;;;;2.95;1.70;;;17.60;38.30;;;;;;5139495;27;20043;-50
2022/04/10 01:49:32;;;;;;;4.35;1.90;;;17.60;38.30;;;;;;5139779;27;20027;-51
2022/04/10 01:51:59;;;;;;;3.85;1.77;;;17.60;38.90;;;;;;5141053;27;20042;-52
2022/04/10 01:54:24;;;;;;;2.53;1.75;;;17.60;38.40;;;;;;5142280;27;20019;-55
2022/04/10 01:56:51;;;;;;;2.78;1.80;;;17.60;38.90;;;;;;5140865;27;20015;-56
2022/04/10 01:59:19;;;;;;;2.75;1.77;;;17.60;38.40;;;;;;5139249;27;20015;-50
2022/04/10 02:01:46;;;;;;;4.30;1.95;;;17.60;38.40;;;;;;5139817;27;20475;-50
2022/04/10 02:04:12;;;;;;;2.58;1.70;;;17.60;38.40;;;;;;5139071;27;20050;-50
2022/04/10 02:06:39;;;;;;;2.85;1.90;;;17.60;38.40;;;;;;5137621;27;20015;-54
2022/04/10 02:09:08;;;;;;;2.75;1.70;;;17.60;38.40;;;;;;5138178;27;20015;-53
2022/04/10 02:11:33;;;;;;;4.53;1.77;;;17.60;38.40;;;;;;5102467;27;20076;-50
2022/04/10 02:14:00;;;;;;;2.75;1.65;;;17.60;38.40;;;;;;5137122;27;20019;-54
2022/04/10 02:16:27;;;;;;;3.35;2.13;;;17.60;38.50;;;;;;5137151;27;20032;-54
2022/04/10 02:18:53;;;;;;;4.43;2.33;;;17.60;38.40;;;;;;5136846;27;20528;-51
2022/04/10 02:21:19;;;;;;;3.00;1.75;;;17.50;38.40;;;;;;5137496;27;20011;-53
2022/04/10 02:23:49;;;;;;;3.20;1.80;;;17.60;38.50;;;;;;5138229;27;20138;-57
2022/04/10 02:26:16;;;;;;;3.08;1.90;;;17.50;38.40;;;;;;5138254;27;20477;-51
2022/04/10 02:28:42;;;;;;;2.70;1.80;;;17.50;38.50;;;;;;5138429;27;20461;-52
2022/04/10 02:31:08;;;;;;;2.63;1.90;;;17.50;38.40;;;;;;5139492;27;20035;-54
2022/04/10 02:33:34;;;;;;;2.78;1.80;;;17.60;38.50;;;;;;5139431;27;20047;-54
2022/04/10 02:36:01;;;;;;;2.33;1.40;;;17.60;38.50;;;;;;5139684;27;20019;-57
2022/04/10 02:38:27;;;;;;;2.25;1.77;;;17.60;38.50;;;;;;5139988;27;20014;-55
2022/04/10 02:40:53;;;;;;;5.97;2.28;;;17.50;38.50;;;;;;5140255;27;20088;-56
2022/04/10 02:43:21;;;;;;;2.63;1.70;;;17.50;38.50;;;;;;5140319;27;20022;-54
2022/04/10 02:45:50;;;;;;;3.08;1.98;;;17.60;38.50;;;;;;5140132;27;20060;-56
2022/04/10 02:48:16;;;;;;;2.80;1.90;;;17.50;38.50;;;;;;5139104;27;20042;-54
2022/04/10 02:50:42;;;;;;;3.10;1.80;;;17.50;38.50;;;;;;5121336;27;20042;-51
2022/04/10 02:53:08;;;;;;;3.13;1.75;;;17.50;38.50;;;;;;5120612;27;20378;-51
2022/04/10 02:55:34;;;;;;;5.28;1.65;;;17.50;38.50;;;;;;5138992;27;20022;-54
2022/04/10 02:58:00;;;;;;;3.58;1.75;;;17.50;38.50;;;;;;5139892;27;20089;-53
2022/04/10 03:00:26;;;;;;;4.13;1.80;;;17.50;38.60;;;;;;5140025;27;20015;-55
2022/04/10 03:02:53;;;;;;;2.60;1.83;;;17.50;38.60;;;;;;5138709;27;20726;-55
2022/04/10 03:05:20;;;;;;;3.03;1.90;;;17.50;38.60;;;;;;5138929;27;20027;-53
2022/04/10 03:07:46;;;;;;;2.08;1.60;;;17.50;38.60;;;;;;5139058;27;20219;-55
2022/04/10 03:10:12;;;;;;;2.30;1.60;;;17.50;38.60;;;;;;5140146;27;20479;-55
2022/04/10 03:12:39;;;;;;;2.47;1.40;;;17.50;38.60;;;;;;5139736;27;20033;-54
2022/04/10 03:15:06;;;;;;;3.50;1.70;;;17.50;38.70;;;;;;5136802;27;20011;-55
2022/04/10 03:17:31;;;;;;;2.25;1.70;;;17.50;38.70;;;;;;5137565;27;20019;-54
2022/04/10 03:19:58;;;;;;;2.55;1.77;;;17.40;38.60;;;;;;5120784;27;20078;-52
2022/04/10 03:22:24;;;;;;;2.40;1.83;;;17.40;38.60;;;;;;5138230;27;20035;-56
2022/04/10 03:24:51;;;;;;;2.90;1.83;;;17.40;38.60;;;;;;5135990;27;20106;-54
2022/04/10 03:27:17;;;;;;;3.03;1.83;;;17.40;38.60;;;;;;5117719;27;20046;-57
2022/04/10 03:29:44;;;;;;;2.35;1.63;;;17.40;38.60;;;;;;5136476;27;20015;-55
2022/04/10 03:32:10;;;;;;;3.55;2.00;;;17.40;38.60;;;;;;5135655;27;20039;-53
2022/04/10 03:34:36;;;;;;;4.63;1.85;;;17.40;38.60;;;;;;5136922;27;20011;-54
2022/04/10 03:37:03;;;;;;;2.53;1.67;;;17.40;38.60;;;;;;5136191;27;20108;-59
2022/04/10 03:39:30;;;;;;;2.38;1.67;;;17.40;38.60;;;;;;5135892;27;20007;-56
2022/04/10 03:41:57;;;;;;;3.17;2.10;;;17.40;38.70;;;;;;5135088;27;20045;-54
2022/04/10 03:44:23;;;;;;;4.13;2.30;;;17.40;38.70;;;;;;5135252;27;20035;-55
2022/04/10 03:46:50;;;;;;;3.45;1.60;;;17.40;38.70;;;;;;5135919;27;20019;-55
2022/04/10 03:49:16;;;;;;;2.83;1.83;;;17.40;38.70;;;;;;5135973;27;20519;-54
2022/04/10 03:51:43;;;;;;;5.28;1.90;;;17.40;38.70;;;;;;5135758;27;20080;-56
2022/04/10 03:54:10;;;;;;;3.78;1.90;;;17.40;38.70;;;;;;5134612;27;20018;-53
2022/04/10 03:56:36;;;;;;;3.13;1.90;;;17.30;38.70;;;;;;5134066;27;20095;-52
2022/04/10 03:59:02;;;;;;;4.00;2.15;;;17.40;38.70;;;;;;5134408;27;20016;-53
2022/04/10 04:01:27;;;;;;;3.67;1.88;;;17.30;38.70;;;;;;5134031;27;20355;-52
2022/04/10 04:03:53;;;;;;;3.20;2.05;;;17.30;38.70;;;;;;5134009;27;20019;-54
2022/04/10 04:06:19;;;;;;;3.63;2.10;;;17.30;38.70;;;;;;5133926;27;20012;-52
2022/04/10 04:08:47;;;;;;;2.53;1.77;;;17.30;38.70;;;;;;5134155;27;20038;-56
2022/04/10 04:11:13;;;;;;;3.05;1.90;;;17.40;38.80;;;;;;5134312;27;20086;-53
2022/04/10 04:13:40;;;;;;;3.20;1.90;;;17.30;38.70;;;;;;5134309;27;20035;-49
2022/04/10 04:16:06;;;;;;;3.83;2.10;;;17.30;38.70;;;;;;5116196;27;20015;-50
2022/04/10 04:18:33;;;;;;;3.58;1.80;;;17.30;38.70;;;;;;5133844;27;20461;-52
2022/04/10 04:20:59;;;;;;;3.97;2.22;;;17.30;38.70;;;;;;5134126;27;20358;-50
2022/04/10 04:23:24;;;;;;;3.63;1.98;;;17.30;38.80;;;;;;5133680;27;20401;-50
2022/04/10 04:25:50;;;;;;;2.92;1.88;;;17.30;38.80;;;;;;5098316;28;20390;-48
2022/04/10 04:28:17;;;;;;;4.00;2.10;;;17.30;38.80;;;;;;5133737;28;20517;-48
2022/04/10 04:30:43;;;;;;;3.83;1.98;;;17.30;38.70;;;;;;5133871;28;20027;-55
2022/04/10 04:33:09;;;;;;;4.68;2.40;;;17.30;38.80;;;;;;5133943;28;20030;-55
2022/04/10 04:35:35;;;;;;;2.83;1.52;;;17.30;38.80;;;;;;5115578;28;20060;-53
2022/04/10 04:38:00;;;;;;;3.78;1.90;;;17.20;38.70;;;;;;5133975;28;20011;-53
2022/04/10 04:40:28;;;;;;;3.50;2.10;;;17.30;38.80;;;;;;5133803;28;20015;-53
2022/04/10 04:42:54;;;;;;;4.30;1.85;;;17.30;38.80;;;;;;5133874;28;20481;-54
2022/04/10 04:45:22;;;;;;;3.78;1.70;;;17.30;38.80;;;;;;5133581;28;20026;-54
2022/04/10 04:47:48;;;;;;;3.95;2.03;;;17.20;38.80;;;;;;5133828;28;20023;-53
2022/04/10 04:50:14;;;;;;;3.00;1.95;;;17.30;38.80;;;;;;5133487;28;20031;-53
2022/04/10 04:52:40;;;;;;;3.50;2.08;;;17.30;38.80;;;;;;5133444;28;20024;-54
2022/04/10 04:55:06;;;;;;;3.45;2.15;;;17.20;38.80;;;;;;5133486;28;20023;-55
2022/04/10 04:57:33;;;;;;;3.55;1.95;;;17.30;38.90;;;;;;5133693;28;20067;-55
2022/04/10 05:00:01;;;;;;;5.97;1.80;;;17.30;38.90;;;;;;5133772;28;20027;-53
2022/04/10 05:02:27;;;;;;;3.13;2.13;;;17.20;38.80;;;;;;5133332;28;20015;-53
2022/04/10 05:04:54;;;;;;;3.35;1.98;;;17.20;38.80;;;;;;5115085;28;20062;-55
2022/04/10 05:07:21;;;;;;;2.95;1.83;;;17.20;38.80;;;;;;5134778;27;20022;-62
2022/04/10 05:09:47;;;;;;;3.33;1.85;;;17.20;38.80;;;;;;5137783;27;20019;-53
2022/04/10 05:12:13;;;;;;;4.18;2.05;;;17.20;38.80;;;;;;5137645;27;20115;-53
2022/04/10 05:14:40;;;;;;;2.47;2.00;;;17.20;38.90;;;;;;5119485;27;20007;-54
2022/04/10 05:17:07;;;;;;;4.22;2.17;;;17.20;38.90;;;;;;5137812;27;20015;-49
2022/04/10 05:19:33;;;;;;;4.13;1.67;;;17.20;38.80;;;;;;5137691;27;20018;-48
2022/04/10 05:21:59;;;;;;;2.70;1.75;;;17.20;38.90;;;;;;5137645;27;20128;-49
2022/04/10 05:24:27;;;;;;;5.72;2.20;;;17.20;38.80;;;;;;5137478;27;20473;-48
2022/04/10 05:26:54;;;;;;;2.63;2.00;;;17.20;38.80;;;;;;5137343;27;20442;-50
2022/04/10 05:29:22;;;;;;;3.88;2.22;;;17.20;38.80;;;;;;5119435;27;20063;-49
2022/04/10 05:31:50;;;;;;;4.53;2.22;;;17.20;38.90;;;;;;5137514;27;20015;-49
2022/04/10 05:34:16;;;;;;;5.25;2.08;;;17.20;38.80;;;;;;5137598;27;20019;-49
2022/04/10 05:36:44;;;;;;;2.83;2.00;;;17.10;38.80;;;;;;5137461;27;20404;-49
2022/04/10 05:39:10;;;;;;;4.38;2.00;;;17.20;38.80;;;;;;5118452;27;20015;-48
2022/04/10 05:41:36;;;;;;;3.00;1.85;;;17.10;38.80;;;;;;5118427;27;20527;-48
2022/04/10 05:44:02;;;;;;;3.75;2.08;;;17.10;38.80;;;;;;5137372;27;20019;-49
2022/04/10 05:46:28;;;;;;;3.13;1.80;;;17.20;38.80;;;;;;5119260;27;20354;-48
2022/04/10 05:48:54;;;;;;;2.72;2.00;;;17.10;38.80;;;;;;5137355;27;20487;-48
2022/04/10 05:51:20;;;;;;;3.25;1.92;;;17.20;38.80;;;;;;5136728;27;20020;-49
2022/04/10 05:53:46;;;;;;;4.43;2.13;;;17.20;38.80;;;;;;5101093;27;20062;-48
2022/04/10 05:56:12;;;;;;;3.67;2.40;;;17.20;38.80;;;;;;5118241;27;20026;-49
2022/04/10 05:58:38;;;;;;;5.47;2.63;;;17.10;38.70;;;;;;5136656;27;20088;-55
2022/04/10 06:01:04;;;;;;;2.95;1.95;;;17.10;38.80;;;;;;5136480;27;20016;-53
2022/04/10 06:03:31;;;;;;;3.60;2.10;;;17.10;38.80;;;;;;5136608;27;20042;-54
2022/04/10 06:05:58;;;;;;;5.88;2.42;;;17.10;38.70;;;;;;5136680;27;20037;-52
2022/04/10 06:08:25;;;;;;;3.80;1.90;;;17.10;38.80;;;;;;5136861;27;20090;-50
2022/04/10 06:10:50;;;;;;;2.95;2.03;;;17.10;38.80;;;;;;5137083;27;20054;-49
2022/04/10 06:13:20;;;;;;;2.90;2.03;;;17.10;38.80;;;;;;5136813;27;20058;-51
2022/04/10 06:15:46;;;;;;;5.20;2.53;;;17.10;38.80;;;;;;5136951;27;20015;-51
2022/04/10 06:18:13;;;;;;;3.70;2.30;;;17.10;38.80;;;;;;5135978;27;20020;-49
2022/04/10 06:20:39;;;;;;;3.63;2.22;;;17.10;38.80;;;;;;5136320;27;20039;-48
2022/04/10 06:23:06;;;;;;;3.92;2.40;;;17.10;38.80;;;;;;5136021;27;20039;-49
2022/04/10 06:25:36;;;;;;;3.40;2.25;;;17.10;38.80;;;;;;5136559;27;20027;-51
2022/04/10 06:28:02;;;;;;;5.63;2.40;;;17.10;38.80;;;;;;5136161;27;20090;-53
2022/04/10 06:30:28;;;;;;;3.65;2.38;;;17.10;38.80;;;;;;5136071;27;20022;-49
2022/04/10 06:32:54;;;;;;;6.68;2.42;;;17.10;38.80;;;;;;5101043;27;20051;-52
2022/04/10 06:35:20;;;;;;;3.97;2.42;;;17.10;38.80;;;;;;5135943;27;20011;-52
2022/04/10 06:37:46;;;;;;;3.63;2.40;;;17.10;38.80;;;;;;5118052;27;20020;-53
2022/04/10 06:40:12;;;;;;;5.03;2.30;;;17.10;38.80;;;;;;5136117;27;20551;-51
2022/04/10 06:42:40;;;;;;;5.13;2.65;;;17.10;38.80;;;;;;5117515;27;20516;-54
2022/04/10 06:45:06;;;;;;;3.88;2.33;;;17.10;38.80;;;;;;5135639;27;20015;-50
2022/04/10 06:47:33;;;;;;;3.42;2.30;;;17.20;38.80;;;;;;5135698;27;20090;-53
2022/04/10 06:50:00;;;;;;;4.00;2.50;;;17.20;38.80;;;;;;5136028;27;20056;-54
2022/04/10 06:52:26;;;;;;;4.75;2.20;;;17.10;38.80;;;;;;5135448;27;20030;-54
2022/04/10 06:54:52;;;;;;;4.90;2.28;;;17.20;38.80;;;;;;5135759;27;20098;-52
2022/04/10 06:57:18;;;;;;;3.20;2.40;;;17.10;38.80;;;;;;5116968;27;20134;-51
2022/04/10 06:59:45;;;;;;;5.60;2.53;;;17.10;38.80;;;;;;5117529;27;20039;-53
2022/04/10 07:02:11;;;;;;;5.30;2.42;;;17.20;38.80;;;;;;5135700;27;20354;-51
2022/04/10 07:04:37;;;;;;;4.32;2.40;;;17.20;38.80;;;;;;5135344;27;20041;-48
2022/04/10 07:07:04;;;;;;;5.20;2.50;;;17.20;38.70;;;;;;5116929;27;20057;-51
2022/04/10 07:09:30;;;;;;;8.68;2.42;;;17.20;38.70;;;;;;5135393;27;20063;-49
2022/04/10 07:11:57;;;;;;;4.15;2.58;;;17.20;38.70;;;;;;5135109;27;20120;-52
2022/04/10 07:14:23;;;;;;;7.43;2.60;;;17.20;38.80;;;;;;5135615;27;20012;-51
2022/04/10 07:16:51;;;;;;;5.68;2.47;;;17.20;38.80;;;;;;5135326;27;20023;-50
2022/04/10 07:19:18;;;;;;;6.72;2.63;;;17.20;38.80;;;;;;5135131;27;20007;-49
2022/04/10 07:24:29;;;;;;;3.50;2.28;;;17.30;38.80;;;;;;5135172;27;20076;-52
2022/04/10 07:26:56;;;;;;;5.60;2.67;;;17.30;38.80;;;;;;5134781;27;20492;-52
2022/04/10 07:29:23;;;;;;;4.47;2.53;;;17.30;38.80;;;;;;5134747;27;20039;-53
2022/04/10 07:31:50;;;;;;;4.18;2.05;;;17.30;38.80;;;;;;5134540;27;20089;-52
2022/04/10 07:34:17;;;;;;;3.72;2.30;;;17.30;38.80;;;;;;5134738;27;20019;-53
2022/04/10 07:36:43;;;;;;;6.68;2.60;;;17.30;38.80;;;;;;5134999;27;20072;-53
2022/04/10 07:39:09;;;;;;;4.70;2.40;;;17.30;38.80;;;;;;5134846;27;20397;-52
2022/04/10 07:41:35;;;;;;;7.35;2.65;;;17.30;38.90;;;;;;5134918;27;20018;-52
2022/04/10 07:44:03;;;;;;;4.55;2.60;;;17.30;38.90;;;;;;5116768;27;20011;-51
2022/04/10 07:49:14;;;;;;;4.20;2.40;;;17.30;38.90;;;;;;5134872;27;20030;-54
2022/04/10 07:51:40;;;;;;;6.28;2.85;;;17.30;38.90;;;;;;5134859;27;20024;-53
2022/04/10 07:54:07;;;;;;;3.75;2.38;;;17.30;39.00;;;;;;5134791;27;20034;-52
2022/04/10 07:56:33;;;;;;;4.43;2.58;;;17.30;39.10;;;;;;5134999;27;20068;-52
2022/04/10 07:58:59;;;;;;;6.10;3.08;;;17.30;39.10;;;;;;5134678;27;20115;-48
2022/04/10 08:01:25;;;;;;;3.65;2.42;;;17.30;39.10;;;;;;5116094;27;20473;-50
2022/04/10 08:03:53;;;;;;;3.95;2.60;;;17.30;39.10;;;;;;5134530;27;20021;-52
2022/04/10 08:06:19;;;;;;;5.35;2.60;;;17.30;39.10;;;;;;5134186;27;20545;-51
2022/04/10 08:08:45;;;;;;;4.75;2.42;;;17.30;39.20;;;;;;5115829;27;20011;-48
2022/04/10 08:11:11;;;;;;;5.75;2.85;;;17.30;39.20;;;;;;5134371;27;20028;-50
2022/04/10 08:13:37;;;;;;;6.80;2.60;;;17.30;39.20;;;;;;5133681;27;20023;-48
2022/04/10 08:16:04;;;;;;;4.90;2.58;;;17.30;39.30;;;;;;5115419;27;20021;-51
2022/04/10 08:18:29;;;;;;;6.82;3.13;;;17.30;39.30;;;;;;5115883;27;20031;-53
2022/04/10 08:20:55;;;;;;;5.72;2.70;;;17.30;39.30;;;;;;5115702;28;20468;-52
2022/04/10 08:23:21;;;;;;;3.78;2.55;;;17.30;39.30;;;;;;5098577;28;20088;-53
2022/04/10 08:25:48;;;;;;;5.70;2.58;;;17.30;39.20;;;;;;5134166;27;20080;-52
2022/04/10 08:28:14;;;;;;;4.78;2.80;;;17.30;39.20;;;;;;5134129;28;20015;-52
2022/04/10 08:30:40;;;;;;;5.45;2.83;;;17.40;39.30;;;;;;5115439;28;20465;-53
2022/04/10 08:33:08;;;;;;;4.55;2.70;;;17.40;39.30;;;;;;5133907;28;20023;-53
2022/04/10 08:35:34;;;;;;;6.25;3.20;;;17.40;39.40;;;;;;5116144;28;20023;-53
2022/04/10 08:38:00;;;;;;;5.30;2.70;;;17.30;39.30;;;;;;5133578;28;20023;-53
2022/04/10 08:40:26;;;;;;;5.95;2.75;;;17.30;39.30;;;;;;5115681;28;20016;-53
2022/04/10 08:42:53;;;;;;;5.07;2.50;;;17.40;39.40;;;;;;5137788;27;20023;-55
2022/04/10 08:45:23;;;;;;;5.68;2.60;;;17.30;39.30;;;;;;5138002;27;20023;-54
2022/04/10 08:47:49;;;;;;;3.75;2.53;;;17.30;39.30;;;;;;5137971;27;20068;-55
2022/04/10 08:50:17;;;;;;;4.22;2.63;;;17.30;39.30;;;;;;5102777;27;20025;-51
2022/04/10 08:52:42;;;;;;;4.60;2.22;;;17.30;39.30;;;;;;5137616;27;20080;-54
2022/04/10 08:55:09;;;;;;;4.60;2.65;;;17.30;39.30;;;;;;5119406;27;20011;-56
2022/04/10 08:57:36;;;;;;;5.35;2.58;;;17.30;39.30;;;;;;5137896;27;20014;-54
2022/04/10 09:00:01;;;;;;;4.75;2.40;;;17.30;39.20;;;;;;5137421;27;20012;-53
2022/04/10 09:02:27;;;;;;;5.57;2.90;;;17.30;39.10;;;;;;5137777;27;20034;-55
2022/04/10 09:04:56;;;;;;;4.03;2.60;;;17.30;39.10;;;;;;5119543;27;20007;-53
2022/04/10 09:07:22;;;;;;;7.05;2.60;;;17.30;39.10;;;;;;5137375;27;20050;-50
2022/04/10 09:09:56;;;;;;;4.40;2.30;;;17.30;39.10;;;;;;5119021;27;20016;-55
2022/04/10 09:12:22;;;;;;;5.65;2.60;;;17.30;39.10;;;;;;5137513;27;20102;-56
2022/04/10 09:14:49;;;;;;;6.90;2.70;;;17.30;39.00;;;;;;5137587;27;20579;-56
2022/04/10 09:17:29;;;;;;;5.40;2.45;;;17.30;39.10;;;;;;5137128;27;20136;-55
2022/04/10 09:19:55;;;;;;;5.40;2.28;;;17.30;39.00;;;;;;5137059;27;20011;-56
2022/04/10 09:22:29;;;;;;;5.78;2.40;;;17.30;39.00;;;;;;5119417;27;20051;-56
2022/04/10 09:25:04;;;;;;;9.18;2.72;;;17.30;39.00;;;;;;5137337;27;20007;-55
2022/04/10 09:27:32;;;;;;;5.18;2.60;;;17.30;39.00;;;;;;5137314;27;20043;-56
2022/04/10 09:29:58;;;;;;;6.65;2.95;;;17.30;38.90;;;;;;5137312;27;20019;-58
2022/04/10 09:32:45;;;;;;;4.60;2.50;;;17.30;38.80;;;;;;5137211;27;20222;-57
2022/04/10 09:35:15;;;;;;;4.13;2.53;;;17.30;38.80;;;;;;5137241;27;20086;-55
2022/04/10 09:37:54;;;;;;;4.00;1.83;;;17.40;38.80;;;;;;5137031;27;20023;-56
2022/04/10 09:40:27;;;;;;;4.53;2.70;;;17.30;38.70;;;;;;5137001;27;20019;-55
2022/04/10 09:43:00;;;;;;;4.50;2.70;;;17.30;38.80;;;;;;5136757;27;20014;-56
2022/04/10 09:45:30;;;;;;;5.28;2.35;;;17.30;38.80;;;;;;5136773;27;20015;-55
2022/04/10 09:47:56;;;;;;;3.97;2.42;;;17.30;38.70;;;;;;5136897;27;20019;-56
2022/04/10 09:50:52;;;;;;;4.45;2.35;;;17.30;38.70;;;;;;5136438;27;20477;-56
2022/04/10 09:53:18;;;;;;;6.63;2.60;;;17.30;38.60;;;;;;5134555;27;20038;-56
2022/04/10 09:55:44;;;;;;;5.07;2.70;;;17.30;38.60;;;;;;5136978;27;20011;-55
2022/04/10 09:58:12;;;;;;;4.45;2.42;;;17.30;38.70;;;;;;5118359;27;20018;-55
2022/04/10 10:00:39;;;;;;;5.35;2.30;;;17.30;38.80;;;;;;5137105;27;20083;-57
2022/04/10 10:03:06;;;;;;;4.60;2.40;;;17.30;38.60;;;;;;5136854;27;20034;-55
2022/04/10 10:05:32;;;;;;;4.15;2.35;;;17.30;38.50;;;;;;5118772;27;20034;-56
2022/04/10 10:07:59;;;;;;;4.13;2.63;;;17.30;38.40;;;;;;5118631;27;20015;-57
2022/04/10 10:10:27;;;;;;;4.15;2.50;;;17.30;38.40;;;;;;5118287;27;20019;-56
2022/04/10 10:12:53;;;;;;;7.65;2.25;;;17.40;38.30;;;;;;5101131;27;20063;-56
2022/04/10 10:15:19;;;;;;;5.60;2.92;;;17.30;38.30;;;;;;5136352;27;20034;-56
2022/04/10 10:17:45;;;;;;;6.40;3.00;;;17.30;38.30;;;;;;5100813;27;20011;-56
2022/04/10 10:20:11;;;;;;;4.03;2.53;;;17.40;38.40;;;;;;5136266;27;20526;-56
2022/04/10 10:22:37;;;;;;;3.47;2.28;;;17.40;38.80;;;;;;5100700;27;20065;-56
2022/04/10 10:25:10;;;;;;;5.07;2.53;;;17.40;38.20;;;;;;5136605;27;20533;-55
2022/04/10 10:28:14;;;;;;;3.60;2.08;;;17.40;38.20;;;;;;5118019;27;20015;-53
2022/04/10 10:30:54;;;;;;;3.97;2.40;;;17.40;38.20;;;;;;5136171;27;20023;-55
2022/04/10 10:33:21;;;;;;;4.20;2.28;;;17.40;38.20;;;;;;5136038;27;20023;-56
2022/04/10 10:35:58;;;;;;;4.05;2.08;;;17.40;38.10;;;;;;5136048;27;20042;-56
2022/04/10 10:38:25;;;;;;;3.17;2.03;;;17.40;38.20;;;;;;5118087;27;20016;-55
2022/04/10 10:40:52;;;;;;;7.43;2.42;;;17.40;38.20;;;;;;5135767;27;20026;-56
2022/04/10 10:43:28;;;;;;;6.80;2.40;;;17.40;38.10;;;;;;5136203;27;20013;-57
2022/04/10 10:45:54;;;;;;;4.68;2.88;;;17.40;38.10;;;;;;5135688;27;20016;-57
2022/04/10 10:48:32;;;;;;;6.15;2.60;;;17.40;38.10;;;;;;5117174;27;20031;-56
2022/04/10 10:51:11;;;;;;;4.90;2.38;;;17.40;38.10;;;;;;5135747;27;20023;-56
2022/04/10 10:53:52;;;;;;;6.00;2.70;;;17.40;38.10;;;;;;5135226;27;20057;-58
2022/04/10 10:56:19;;;;;;;3.75;2.38;;;17.40;38.10;;;;;;5135257;27;20007;-58
2022/04/10 10:58:49;;;;;;;4.78;2.38;;;17.40;38.00;;;;;;5135496;27;20015;-58
2022/04/10 11:01:19;;;;;;;4.03;2.40;;;17.40;37.90;;;;;;5135094;27;20019;-58
2022/04/10 11:04:04;;;;;;;4.63;2.50;;;17.40;37.90;;;;;;5116787;27;20086;-58
2022/04/10 11:06:33;;;;;;;4.32;2.28;;;17.40;37.80;;;;;;5134707;27;20018;-58
2022/04/10 11:09:31;;;;;;;3.55;2.15;;;17.40;37.70;;;;;;5116891;27;20049;-58
2022/04/10 11:11:58;;;;;;;4.75;2.30;;;17.40;37.70;;;;;;5031762;28;20030;-58
2022/04/10 11:14:39;;;;;;;4.72;2.40;;;17.40;37.50;;;;;;5031736;28;20052;-58
2022/04/10 11:17:15;;;;;;;3.78;2.30;;;17.40;37.40;;;;;;5031660;28;20005;-58
2022/04/10 11:19:47;;;;;;;4.65;1.98;;;17.40;37.40;;;;;;5031634;28;20026;-59
2022/04/10 11:22:18;;;;;;;4.32;2.38;;;17.40;37.30;;;;;;5031963;28;20106;-59
2022/04/10 11:24:44;;;;;;;3.45;2.10;;;17.40;37.40;;;;;;5031749;28;20045;-59
2022/04/10 11:27:13;;;;;;;4.43;2.35;;;17.40;37.50;;;;;;5031775;28;20024;-58
2022/04/10 11:29:50;;;;;;;5.03;2.60;;;17.40;37.10;;;;;;5031457;28;20033;-59
2022/04/10 11:32:17;;;;;;;5.75;2.20;;;17.50;37.10;;;;;;5015065;28;20025;-58
2022/04/10 11:34:57;;;;;;;4.28;2.40;;;17.50;37.30;;;;;;5031371;28;20049;-59
2022/04/10 11:37:23;;;;;;;3.60;2.15;;;17.50;37.20;;;;;;5031295;28;20095;-58
2022/04/10 11:39:50;;;;;;;3.55;1.73;;;17.50;37.10;;;;;;5031303;28;20026;-58
2022/04/10 11:42:15;;;;;;;4.95;1.85;;;17.50;36.90;;;;;;5015094;28;20041;-59
2022/04/10 11:44:41;;;;;;;3.42;2.33;;;17.50;37.20;;;;;;5014908;28;20029;-57
2022/04/10 11:47:10;;;;;;;3.78;2.17;;;17.50;37.00;;;;;;5048443;27;20504;-59
2022/04/10 11:49:36;;;;;;;4.55;2.22;;;17.50;37.00;;;;;;5134146;27;20102;-58
2022/04/10 11:52:02;;;;;;;3.40;2.03;;;17.50;37.00;;;;;;5134344;27;20043;-58
2022/04/10 11:54:36;;;;;;;3.88;2.20;;;17.50;37.10;;;;;;5134405;27;20015;-59
2022/04/10 11:57:06;;;;;;;5.35;2.25;;;17.50;37.10;;;;;;5134408;27;20039;-59
2022/04/10 11:59:36;;;;;;;2.92;2.00;;;17.50;37.10;;;;;;5134090;27;20048;-59
2022/04/10 12:02:03;;;;;;;4.20;2.00;;;17.50;37.10;;;;;;5134269;27;20130;-58
2022/04/10 12:04:29;;;;;;;4.20;2.20;;;17.40;37.00;;;;;;5134307;27;20047;-59
2022/04/10 12:07:20;;;;;;;4.13;1.80;;;17.50;37.00;;;;;;5098826;27;20007;-59
2022/04/10 12:09:48;;;;;;;4.47;2.05;;;17.40;37.00;;;;;;5133837;27;20098;-59
2022/04/10 12:12:14;;;;;;;4.43;2.20;;;17.40;37.10;;;;;;5134087;27;20156;-58
2022/04/10 12:14:40;;;;;;;4.03;2.20;;;17.40;37.00;;;;;;5116027;28;20008;-58
2022/04/10 12:17:12;;;;;;;7.15;2.28;;;17.50;36.90;;;;;;5115174;27;20504;-59
2022/04/10 12:19:38;;;;;;;4.07;2.00;;;17.40;36.60;;;;;;5115376;27;20021;-59
2022/04/10 12:22:07;;;;;;;3.70;2.25;;;17.50;36.60;;;;;;5115710;27;20036;-59
2022/04/10 12:24:34;;;;;;;3.35;1.80;;;17.50;36.30;;;;;;5098792;27;20149;-59
2022/04/10 12:26:59;;;;;;;4.32;2.10;;;17.40;36.50;;;;;;5115714;27;20020;-59
2022/04/10 12:29:29;;;;;;;7.05;2.10;;;17.40;36.40;;;;;;5115929;28;20019;-58
2022/04/10 12:31:55;;;;;;;6.82;2.35;;;17.50;36.60;;;;;;5133625;28;20007;-58
2022/04/10 12:34:21;;;;;;;3.35;1.90;;;17.50;36.50;;;;;;5134092;28;20029;-58
2022/04/10 12:36:49;;;;;;;4.78;1.92;;;17.50;36.40;;;;;;5134045;28;20041;-58
2022/04/10 12:39:24;;;;;;;4.03;1.85;;;17.50;36.40;;;;;;5133979;28;20010;-58
2022/04/10 12:42:20;;;;;;;3.20;1.92;;;17.50;36.20;;;;;;5133743;28;20011;-59
2022/04/10 12:44:58;;;;;;;3.13;1.85;;;17.50;36.40;;;;;;5131440;28;20016;-58
2022/04/10 12:47:44;;;;;;;3.85;2.08;;;17.50;36.50;;;;;;5133938;28;20044;-58
2022/04/10 12:50:15;;;;;;;3.85;2.10;;;17.50;36.40;;;;;;5133946;28;20007;-58
2022/04/10 12:52:44;;;;;;;2.65;1.88;;;17.50;36.30;;;;;;5133581;28;20027;-58
2022/04/10 12:55:23;;;;;;;3.08;1.80;;;17.50;36.30;;;;;;5133894;28;20015;-58
2022/04/10 12:58:05;;;;;;;4.85;1.83;;;17.60;36.10;;;;;;5133506;28;20102;-58